createdAt,value
2022-09-12T00:01:04.578Z,101128.50
2022-09-12T00:03:32.690Z,101119.97
2022-09-12T00:06:00.590Z,101120.25
2022-09-12T00:08:28.557Z,101123.81
2022-09-12T00:10:56.445Z,101115.50
2022-09-12T00:13:24.496Z,101114.13
2022-09-12T00:15:52.354Z,101117.59
2022-09-12T00:18:21.648Z,101113.31
2022-09-12T00:20:49.573Z,101120.69
2022-09-12T00:23:17.449Z,101114.75
2022-09-12T00:25:47.775Z,101118.47
2022-09-12T00:28:19.052Z,101119.22
2022-09-12T00:30:49.365Z,101109.00
2022-09-12T00:33:19.096Z,101111.94
2022-09-12T00:35:52.324Z,101115.56
2022-09-12T00:38:21.337Z,101112.97
2022-09-12T00:40:50.292Z,101117.34
2022-09-12T00:43:37.385Z,101116.25
2022-09-12T00:46:12.079Z,101106.84
2022-09-12T00:48:45.132Z,101111.72
2022-09-12T00:51:15.248Z,101101.38
2022-09-12T00:53:45.496Z,101099.16
2022-09-12T00:56:16.733Z,101097.28
2022-09-12T00:58:49.715Z,101098.88
2022-09-12T01:01:17.988Z,101104.34
2022-09-12T01:03:46.244Z,101050.75
2022-09-12T01:06:22.438Z,101095.97
2022-09-12T01:08:52.054Z,101091.28
2022-09-12T01:11:21.926Z,101082.41
2022-09-12T01:13:51.711Z,101091.75
2022-09-12T01:16:20.080Z,101105.69
2022-09-12T01:19:03.170Z,101086.88
2022-09-12T01:21:43.133Z,101091.53
2022-09-12T01:24:38.853Z,101090.22
2022-09-12T01:27:34.479Z,101086.16
2022-09-12T01:30:23.484Z,101081.28
2022-09-12T01:33:03.991Z,101089.22
2022-09-12T01:35:38.260Z,101079.91
2022-09-12T01:38:12.787Z,101086.13
2022-09-12T01:40:49.068Z,101076.03
2022-09-12T01:43:26.726Z,101079.13
2022-09-12T01:46:02.767Z,101073.34
2022-09-12T01:48:35.806Z,101074.63
2022-09-12T01:51:12.424Z,101074.50
2022-09-12T01:53:45.275Z,101079.59
2022-09-12T01:56:20.184Z,101074.81
2022-09-12T01:58:52.374Z,101068.75
2022-09-12T02:01:27.015Z,101067.59
2022-09-12T02:04:03.847Z,101068.06
2022-09-12T02:06:36.291Z,101069.22
2022-09-12T02:09:09.893Z,101049.91
2022-09-12T02:11:42.886Z,101021.59
2022-09-12T02:14:16.739Z,101050.91
2022-09-12T02:16:49.491Z,101040.78
2022-09-12T02:19:21.327Z,101053.88
2022-09-12T02:21:52.974Z,101053.34
2022-09-12T02:24:23.137Z,101053.50
2022-09-12T02:26:55.780Z,101053.91
2022-09-12T02:29:23.712Z,101064.59
2022-09-12T02:31:58.942Z,101049.84
2022-09-12T02:34:39.877Z,101053.91
2022-09-12T02:37:15.555Z,101049.44
2022-09-12T02:39:45.463Z,101058.97
2022-09-12T02:42:14.631Z,101045.69
2022-09-12T02:44:43.528Z,101049.09
2022-09-12T02:47:18.428Z,101041.31
2022-09-12T02:49:46.633Z,101044.97
2022-09-12T02:52:14.594Z,101035.28
2022-09-12T02:54:44.164Z,101039.91
2022-09-12T02:57:22.361Z,101034.69
2022-09-12T02:59:54.466Z,100998.63
2022-09-12T03:02:31.386Z,101029.91
2022-09-12T03:05:13.043Z,101039.38
2022-09-12T03:08:00.159Z,101043.84
2022-09-12T03:10:35.977Z,101032.31
2022-09-12T03:13:16.621Z,101032.03
2022-09-12T03:15:55.308Z,101032.91
2022-09-12T03:18:43.365Z,101034.97
2022-09-12T03:21:19.189Z,101032.31
2022-09-12T03:24:06.688Z,101030.19
2022-09-12T03:26:42.569Z,101035.41
2022-09-12T03:29:12.936Z,101043.59
2022-09-12T03:31:50.220Z,101032.94
2022-09-12T03:34:19.895Z,101025.41
2022-09-12T03:36:48.540Z,101037.66
2022-09-12T03:39:16.727Z,101038.53
2022-09-12T03:41:44.699Z,101035.28
2022-09-12T03:44:12.693Z,101031.88
2022-09-12T03:46:40.594Z,101048.81
2022-09-12T03:49:08.511Z,101035.81
2022-09-12T03:51:37.905Z,101045.16
2022-09-12T03:54:06.277Z,101012.09
2022-09-12T03:56:34.494Z,101034.53
2022-09-12T03:59:02.634Z,101034.84
2022-09-12T04:01:30.674Z,101033.00
2022-09-12T04:03:58.683Z,101023.66
2022-09-12T04:06:26.699Z,101039.72
2022-09-12T04:08:56.487Z,101038.13
2022-09-12T04:11:24.771Z,101036.63
2022-09-12T04:13:52.866Z,101038.13
2022-09-12T04:16:21.131Z,101045.81
2022-09-12T04:18:49.134Z,101036.47
2022-09-12T04:21:19.409Z,101044.75
2022-09-12T04:23:47.346Z,101043.44
2022-09-12T04:26:18.400Z,101041.09
2022-09-12T04:28:47.351Z,101040.38
2022-09-12T04:31:17.805Z,101042.88
2022-09-12T04:33:46.761Z,101046.09
2022-09-12T04:36:16.819Z,101035.28
2022-09-12T04:38:46.380Z,101040.75
2022-09-12T04:41:17.873Z,101044.25
2022-09-12T04:43:47.430Z,101045.59
2022-09-12T04:46:19.787Z,101039.69
2022-09-12T04:48:51.357Z,101046.81
2022-09-12T04:51:25.944Z,101042.50
2022-09-12T04:53:55.782Z,101044.56
2022-09-12T04:56:25.893Z,101036.50
2022-09-12T04:58:53.914Z,101041.97
2022-09-12T05:01:23.741Z,101040.97
2022-09-12T05:03:52.322Z,101039.94
2022-09-12T05:06:22.686Z,101052.41
2022-09-12T05:08:51.233Z,101042.63
2022-09-12T05:11:24.715Z,101050.88
2022-09-12T05:13:56.285Z,101050.63
2022-09-12T05:16:25.862Z,101038.41
2022-09-12T05:18:53.861Z,101054.22
2022-09-12T05:21:23.715Z,101053.16
2022-09-12T05:23:52.992Z,101061.03
2022-09-12T05:26:22.903Z,101055.28
2022-09-12T05:28:52.576Z,101052.00
2022-09-12T05:31:24.163Z,101054.06
2022-09-12T05:33:53.765Z,101054.56
2022-09-12T05:36:23.934Z,101052.94
2022-09-12T05:38:52.141Z,101041.41
2022-09-12T05:41:24.960Z,101050.97
2022-09-12T05:43:54.254Z,101049.63
2022-09-12T05:46:26.281Z,101053.22
2022-09-12T05:48:56.685Z,101050.25
2022-09-12T05:51:27.230Z,101054.63
2022-09-12T05:53:56.676Z,101048.50
2022-09-12T05:56:27.305Z,101047.88
2022-09-12T05:58:57.045Z,101052.78
2022-09-12T06:01:28.092Z,101051.06
2022-09-12T06:03:57.839Z,101053.97
2022-09-12T06:06:27.677Z,101051.47
2022-09-12T06:08:59.408Z,101056.72
2022-09-12T06:11:29.365Z,101063.81
2022-09-12T06:13:58.489Z,101060.63
2022-09-12T06:16:29.801Z,101064.56
2022-09-12T06:19:00.651Z,101060.28
2022-09-12T06:21:30.715Z,101058.00
2022-09-12T06:23:59.734Z,101059.38
2022-09-12T06:26:29.580Z,101047.78
2022-09-12T06:29:00.360Z,101051.22
2022-09-12T06:31:31.651Z,101048.56
2022-09-12T06:34:01.895Z,101044.75
2022-09-12T06:36:32.607Z,101037.91
2022-09-12T06:39:03.330Z,101041.91
2022-09-12T06:41:32.522Z,101039.78
2022-09-12T06:44:01.935Z,101036.91
2022-09-12T06:46:32.124Z,101036.91
2022-09-12T06:49:01.634Z,101032.31
2022-09-12T06:51:29.949Z,101024.47
2022-09-12T06:53:58.972Z,101033.41
2022-09-12T06:56:29.637Z,101035.22
2022-09-12T06:58:59.358Z,101038.34
2022-09-12T07:01:29.275Z,101028.00
2022-09-12T07:04:00.338Z,101026.31
2022-09-12T07:06:31.842Z,101029.94
2022-09-12T07:09:01.127Z,101030.84
2022-09-12T07:11:31.771Z,101023.66
2022-09-12T07:14:01.303Z,101028.66
2022-09-12T07:16:30.321Z,101031.47
2022-09-12T07:19:01.896Z,101044.38
2022-09-12T07:21:30.884Z,101038.31
2022-09-12T07:23:59.189Z,101042.03
2022-09-12T07:26:28.237Z,101035.72
2022-09-12T07:29:12.898Z,101031.75
2022-09-12T07:31:45.932Z,101026.50
2022-09-12T07:34:22.735Z,101022.75
2022-09-12T07:36:50.732Z,101030.59
2022-09-12T07:39:18.915Z,101029.25
2022-09-12T07:41:47.056Z,101026.91
2022-09-12T07:44:23.905Z,101032.81
2022-09-12T07:46:55.034Z,101026.50
2022-09-12T07:49:27.461Z,101031.34
2022-09-12T07:51:55.469Z,101040.75
2022-09-12T07:54:23.926Z,101042.09
2022-09-12T07:56:51.895Z,101048.97
2022-09-12T07:59:41.547Z,101045.06
2022-09-12T08:02:16.757Z,101042.56
2022-09-12T08:04:48.011Z,101048.88
2022-09-12T08:07:18.269Z,101053.28
2022-09-12T08:09:46.433Z,101039.19
2022-09-12T08:12:14.887Z,101043.13
2022-09-12T08:14:43.003Z,101051.25
2022-09-12T08:17:11.109Z,101035.00
2022-09-12T08:19:39.438Z,101030.56
2022-09-12T08:22:09.810Z,101028.75
2022-09-12T08:24:39.167Z,101031.25
2022-09-12T08:27:09.311Z,101031.13
2022-09-12T08:29:37.352Z,101040.88
2022-09-12T08:32:05.373Z,101033.13
2022-09-12T08:34:33.632Z,101036.72
2022-09-12T08:37:01.806Z,101029.94
2022-09-12T08:39:31.305Z,101025.66
2022-09-12T08:42:03.125Z,101025.06
2022-09-12T08:44:50.660Z,101025.88
2022-09-12T08:47:28.308Z,101029.69
2022-09-12T08:50:07.639Z,101028.28
2022-09-12T08:52:43.656Z,101030.44
2022-09-12T08:55:28.571Z,101031.41
2022-09-12T08:57:56.681Z,101030.81
2022-09-12T09:00:26.659Z,101025.91
2022-09-12T09:03:11.793Z,101034.47
2022-09-12T09:05:47.193Z,101033.56
2022-09-12T09:08:45.906Z,101024.63
2022-09-12T09:11:28.004Z,101024.47
2022-09-12T09:14:28.638Z,101021.31
2022-09-12T09:16:58.713Z,101020.78
2022-09-12T09:19:31.684Z,101015.53
2022-09-12T09:22:02.150Z,101004.34
2022-09-12T09:24:37.999Z,101006.81
2022-09-12T09:27:36.946Z,101000.38
2022-09-12T09:30:03.423Z,101003.81
2022-09-12T09:32:36.485Z,100997.25
2022-09-12T09:35:16.547Z,100998.97
2022-09-12T09:38:01.618Z,101000.66
2022-09-12T09:40:39.282Z,100994.03
2022-09-12T09:43:18.423Z,100992.75
2022-09-12T09:45:47.985Z,100990.41
2022-09-12T09:48:19.403Z,100985.75
2022-09-12T09:50:50.134Z,100985.91
2022-09-12T09:53:30.596Z,100983.91
2022-09-12T09:56:03.374Z,100982.59
2022-09-12T09:58:37.156Z,100985.22
2022-09-12T10:01:07.224Z,100985.91
2022-09-12T10:03:39.033Z,100976.75
2022-09-12T10:06:25.370Z,100980.31
2022-09-12T10:09:06.361Z,100973.22
2022-09-12T10:11:34.697Z,100976.88
2022-09-12T10:14:04.693Z,100964.13
2022-09-12T10:16:52.367Z,100972.63
2022-09-12T10:19:24.731Z,100972.06
2022-09-12T10:21:55.604Z,100965.69
2022-09-12T10:24:27.139Z,100975.25
2022-09-12T10:26:58.079Z,100963.09
2022-09-12T10:29:31.434Z,100968.41
2022-09-12T10:32:02.297Z,100980.91
2022-09-12T10:34:35.941Z,100963.00
2022-09-12T10:37:07.793Z,100966.34
2022-09-12T10:39:38.561Z,100965.63
2022-09-12T10:42:07.247Z,100959.09
2022-09-12T10:44:36.591Z,100966.22
2022-09-12T10:47:23.186Z,100959.09
2022-09-12T10:49:51.221Z,100957.06
2022-09-12T10:52:24.176Z,100953.47
2022-09-12T10:54:52.224Z,100947.78
2022-09-12T10:57:50.318Z,100949.03
2022-09-12T11:00:27.579Z,100933.28
2022-09-12T11:03:16.357Z,100941.53
2022-09-12T11:05:54.380Z,100940.28
2022-09-12T11:08:42.032Z,100933.63
2022-09-12T11:11:21.612Z,100939.63
2022-09-12T11:14:06.261Z,100936.44
2022-09-12T11:16:43.180Z,100938.00
2022-09-12T11:19:29.002Z,100921.44
2022-09-12T11:22:15.683Z,100931.13
2022-09-12T11:25:15.098Z,100921.66
2022-09-12T11:27:49.926Z,100930.22
2022-09-12T11:30:19.199Z,100928.00
2022-09-12T11:33:23.396Z,100922.13
2022-09-12T11:35:55.474Z,100909.09
2022-09-12T11:38:40.178Z,100906.41
2022-09-12T11:41:12.598Z,100916.69
2022-09-12T11:43:44.634Z,100897.63
2022-09-12T11:46:20.305Z,100908.03
2022-09-12T11:48:56.268Z,100903.84
2022-09-12T11:51:28.647Z,100902.69
2022-09-12T11:54:13.150Z,100906.88
2022-09-12T11:56:46.489Z,100904.84
2022-09-12T11:59:25.739Z,100896.91
2022-09-12T12:01:59.584Z,100902.72
2022-09-12T12:04:38.159Z,100894.88
2022-09-12T12:07:08.959Z,100899.25
2022-09-12T12:09:37.604Z,100885.84
2022-09-12T12:12:10.139Z,100897.09
2022-09-12T12:14:44.209Z,100891.22
2022-09-12T12:17:17.510Z,100890.84
2022-09-12T12:19:48.334Z,100889.56
2022-09-12T12:22:19.258Z,100888.44
2022-09-12T12:25:03.322Z,100891.69
2022-09-12T12:27:50.095Z,100880.16
2022-09-12T12:30:57.542Z,100874.16
2022-09-12T12:34:02.199Z,100884.00
2022-09-12T12:36:35.981Z,100877.91
2022-09-12T12:39:46.856Z,100877.63
2022-09-12T12:42:58.892Z,100875.38
2022-09-12T12:46:12.991Z,100871.50
2022-09-12T12:49:09.487Z,100867.41
2022-09-12T12:51:44.381Z,100862.19
2022-09-12T12:54:48.962Z,100859.41
2022-09-12T12:57:20.795Z,100861.03
2022-09-12T12:59:52.758Z,100855.66
2022-09-12T13:02:25.219Z,100849.97
2022-09-12T13:04:54.467Z,100844.19
2022-09-12T13:07:29.799Z,100836.13
2022-09-12T13:10:00.746Z,100845.47
2022-09-12T13:12:31.796Z,100841.94
2022-09-12T13:15:01.064Z,100824.53
2022-09-12T13:17:46.802Z,100833.97
2022-09-12T13:20:30.093Z,100831.59
2022-09-12T13:23:00.547Z,100824.44
2022-09-12T13:25:31.331Z,100831.59
2022-09-12T13:28:06.189Z,100826.38
2022-09-12T13:30:36.019Z,100815.19
2022-09-12T13:33:19.354Z,100812.41
2022-09-12T13:36:29.627Z,100812.97
2022-09-12T13:39:21.522Z,100806.13
2022-09-12T13:42:31.085Z,100805.63
2022-09-12T13:45:03.575Z,100797.84
2022-09-12T13:47:35.666Z,100788.41
2022-09-12T13:50:05.083Z,100779.91
2022-09-12T13:52:35.816Z,100781.56
2022-09-12T13:55:09.200Z,100780.53
2022-09-12T13:57:38.875Z,100783.25
2022-09-12T14:00:19.367Z,100768.97
2022-09-12T14:03:11.373Z,100766.63
2022-09-12T14:05:40.996Z,100770.34
2022-09-12T14:08:10.227Z,100761.16
2022-09-12T14:10:41.591Z,100764.66
2022-09-12T14:13:13.757Z,100749.28
2022-09-12T14:15:46.630Z,100748.91
2022-09-12T14:18:24.933Z,100746.63
2022-09-12T14:20:54.071Z,100743.31
2022-09-12T14:23:28.468Z,100742.78
2022-09-12T14:26:00.031Z,100742.41
2022-09-12T14:28:30.243Z,100744.16
2022-09-12T14:31:00.695Z,100752.47
2022-09-12T14:33:29.571Z,100748.75
2022-09-12T14:36:16.906Z,100744.78
2022-09-12T14:38:48.301Z,100735.41
2022-09-12T14:41:24.898Z,100733.88
2022-09-12T14:43:56.279Z,100739.66
2022-09-12T14:46:28.458Z,100718.66
2022-09-12T14:49:02.221Z,100727.63
2022-09-12T14:51:34.654Z,100722.50
2022-09-12T14:54:02.750Z,100719.31
2022-09-12T14:56:43.513Z,100717.09
2022-09-12T14:59:37.583Z,100716.34
2022-09-12T15:02:24.326Z,100714.72
2022-09-12T15:04:54.236Z,100712.00
2022-09-12T15:07:32.322Z,100703.63
2022-09-12T15:10:02.581Z,100702.13
2022-09-12T15:12:32.077Z,100704.25
2022-09-12T15:15:10.965Z,100701.50
2022-09-12T15:17:38.793Z,100703.28
2022-09-12T15:20:07.928Z,100706.44
2022-09-12T15:22:37.189Z,100700.00
2022-09-12T15:25:06.540Z,100689.84
2022-09-12T15:27:36.107Z,100690.53
2022-09-12T15:30:04.856Z,100689.28
2022-09-12T15:32:32.868Z,100685.41
2022-09-12T15:35:00.847Z,100682.19
2022-09-12T15:37:28.931Z,100688.81
2022-09-12T15:39:57.013Z,100691.19
2022-09-12T15:42:29.300Z,100680.81
2022-09-12T15:45:02.636Z,100683.06
2022-09-12T15:47:31.299Z,100685.06
2022-09-12T15:49:59.286Z,100672.63
2022-09-12T15:52:27.281Z,100681.56
2022-09-12T15:54:55.267Z,100676.47
2022-09-12T15:57:23.214Z,100673.16
2022-09-12T15:59:53.107Z,100678.38
2022-09-12T16:02:22.609Z,100665.53
2022-09-12T16:04:54.562Z,100670.56
2022-09-12T16:07:22.687Z,100662.75
2022-09-12T16:09:51.017Z,100661.81
2022-09-12T16:12:19.023Z,100656.22
2022-09-12T16:14:47.006Z,100665.72
2022-09-12T16:17:15.014Z,100661.16
2022-09-12T16:19:44.249Z,100656.00
2022-09-12T16:22:12.250Z,100652.31
2022-09-12T16:24:40.359Z,100656.22
2022-09-12T16:27:08.441Z,100653.28
2022-09-12T16:29:36.592Z,100654.34
2022-09-12T16:32:04.756Z,100652.50
2022-09-12T16:34:32.887Z,100644.53
2022-09-12T16:37:02.785Z,100650.84
2022-09-12T16:39:30.792Z,100636.56
2022-09-12T16:41:58.885Z,100639.56
2022-09-12T16:44:26.895Z,100632.28
2022-09-12T16:46:55.429Z,100630.16
2022-09-12T16:49:23.439Z,100623.47
2022-09-12T16:51:51.342Z,100627.91
2022-09-12T16:54:21.011Z,100622.81
2022-09-12T16:56:49.928Z,100623.50
2022-09-12T16:59:19.761Z,100625.53
2022-09-12T17:01:47.898Z,100628.56
2022-09-12T17:04:15.920Z,100620.13
2022-09-12T17:06:44.080Z,100618.88
2022-09-12T17:09:16.280Z,100619.41
2022-09-12T17:11:47.787Z,100620.97
2022-09-12T17:14:15.778Z,100620.25
2022-09-12T17:16:51.439Z,100615.41
2022-09-12T17:19:25.574Z,100611.88
2022-09-12T17:21:54.013Z,100601.28
2022-09-12T17:24:23.027Z,100607.16
2022-09-12T17:26:53.580Z,100598.88
2022-09-12T17:29:22.156Z,100604.13
2022-09-12T17:31:50.253Z,100603.97
2022-09-12T17:34:18.621Z,100603.34
2022-09-12T17:36:48.457Z,100599.06
2022-09-12T17:39:16.794Z,100600.59
2022-09-12T17:41:45.943Z,100597.16
2022-09-12T17:44:16.029Z,100591.72
2022-09-12T17:46:44.494Z,100591.97
2022-09-12T17:49:15.507Z,100579.09
2022-09-12T17:51:44.571Z,100585.44
2022-09-12T17:54:14.012Z,100587.59
2022-09-12T17:56:42.716Z,100584.66
2022-09-12T17:59:16.899Z,100587.66
2022-09-12T18:02:11.167Z,100588.88
2022-09-12T18:04:39.278Z,100581.31
2022-09-12T18:07:08.302Z,100589.19
2022-09-12T18:09:37.265Z,100590.16
2022-09-12T18:12:06.397Z,100594.56
2022-09-12T18:14:35.822Z,100585.81
2022-09-12T18:17:04.624Z,100585.59
2022-09-12T18:19:32.589Z,100589.50
2022-09-12T18:22:02.544Z,100586.22
2022-09-12T18:24:30.519Z,100591.66
2022-09-12T18:26:59.143Z,100586.19
2022-09-12T18:29:27.987Z,100585.44
2022-09-12T18:31:57.447Z,100590.53
2022-09-12T18:34:25.612Z,100585.13
2022-09-12T18:36:54.894Z,100580.25
2022-09-12T18:39:27.471Z,100589.44
2022-09-12T18:41:56.396Z,100585.03
2022-09-12T18:44:24.461Z,100577.81
2022-09-12T18:46:52.840Z,100586.78
2022-09-12T18:49:22.500Z,100577.72
2022-09-12T18:51:50.834Z,100560.75
2022-09-12T18:54:19.355Z,100574.53
2022-09-12T18:56:47.695Z,100576.97
2022-09-12T18:59:15.973Z,100575.34
2022-09-12T19:01:44.785Z,100579.41
2022-09-12T19:04:14.243Z,100578.53
2022-09-12T19:06:45.415Z,100577.31
2022-09-12T19:09:18.131Z,100570.47
2022-09-12T19:11:50.114Z,100566.31
2022-09-12T19:14:20.487Z,100562.97
2022-09-12T19:16:48.644Z,100558.69
2022-09-12T19:19:16.816Z,100557.22
2022-09-12T19:21:48.045Z,100553.16
2022-09-12T19:24:17.109Z,100559.78
2022-09-12T19:26:45.547Z,100555.97
2022-09-12T19:29:14.660Z,100563.44
2022-09-12T19:31:42.820Z,100565.38
2022-09-12T19:34:12.205Z,100560.94
2022-09-12T19:36:45.738Z,100554.28
2022-09-12T19:39:17.641Z,100550.34
2022-09-12T19:41:46.345Z,100545.81
2022-09-12T19:44:14.715Z,100540.56
2022-09-12T19:46:42.959Z,100541.78
2022-09-12T19:49:12.687Z,100534.16
2022-09-12T19:51:41.079Z,100536.97
2022-09-12T19:54:09.586Z,100537.34
2022-09-12T19:56:39.580Z,100533.38
2022-09-12T19:59:07.582Z,100533.50
2022-09-12T20:01:37.132Z,100532.13
2022-09-12T20:04:06.706Z,100525.25
2022-09-12T20:06:34.916Z,100528.94
2022-09-12T20:09:03.088Z,100530.38
2022-09-12T20:11:31.454Z,100518.22
2022-09-12T20:14:01.090Z,100512.00
2022-09-12T20:16:30.063Z,100508.09
2022-09-12T20:19:01.384Z,100505.88
2022-09-12T20:21:32.910Z,100506.38
2022-09-12T20:24:03.044Z,100510.28
2022-09-12T20:26:31.128Z,100508.91
2022-09-12T20:29:00.758Z,100514.41
2022-09-12T20:31:28.900Z,100507.41
2022-09-12T20:33:57.109Z,100504.72
2022-09-12T20:36:25.093Z,100506.69
2022-09-12T20:38:56.680Z,100497.00
2022-09-12T20:41:25.822Z,100502.84
2022-09-12T20:43:54.853Z,100493.03
2022-09-12T20:46:25.107Z,100494.00
2022-09-12T20:48:53.653Z,100490.88
2022-09-12T20:51:22.798Z,100498.09
2022-09-12T20:53:54.537Z,100490.78
2022-09-12T20:56:23.141Z,100484.75
2022-09-12T20:58:51.538Z,100466.28
2022-09-12T21:01:19.610Z,100475.09
2022-09-12T21:03:49.636Z,100460.59
2022-09-12T21:06:18.519Z,100464.69
2022-09-12T21:08:47.403Z,100461.00
2022-09-12T21:11:15.755Z,100456.63
2022-09-12T21:13:44.105Z,100453.66
2022-09-12T21:16:14.028Z,100447.63
2022-09-12T21:18:42.811Z,100447.16
2022-09-12T21:21:14.175Z,100443.84
2022-09-12T21:23:42.546Z,100434.41
2022-09-12T21:26:10.660Z,100430.47
2022-09-12T21:28:38.735Z,100423.38
2022-09-12T21:31:06.959Z,100415.41
2022-09-12T21:33:35.021Z,100412.47
2022-09-12T21:36:04.479Z,100416.22
2022-09-12T21:38:34.262Z,100412.06
2022-09-12T21:41:07.465Z,100412.78
2022-09-12T21:43:35.408Z,100423.22
2022-09-12T21:46:04.290Z,100409.97
2022-09-12T21:48:32.956Z,100404.97
2022-09-12T21:51:01.675Z,100401.75
2022-09-12T21:53:30.077Z,100403.44
2022-09-12T21:56:03.757Z,100396.16
2022-09-12T21:58:31.749Z,100398.31
2022-09-12T22:01:00.958Z,100407.34
2022-09-12T22:03:29.887Z,100403.03
2022-09-12T22:05:58.712Z,100402.94
2022-09-12T22:08:27.084Z,100402.94
2022-09-12T22:10:59.487Z,100393.41
2022-09-12T22:13:32.096Z,100399.50
2022-09-12T22:16:03.485Z,100396.09
2022-09-12T22:18:34.538Z,100404.88
2022-09-12T22:21:05.023Z,100402.19
2022-09-12T22:24:05.430Z,100396.81
2022-09-12T22:26:41.919Z,100395.13
2022-09-12T22:29:13.261Z,100380.94
2022-09-12T22:31:41.672Z,100380.94
2022-09-12T22:34:09.731Z,100378.25
2022-09-12T22:36:39.159Z,100377.69
2022-09-12T22:39:07.444Z,100371.19
2022-09-12T22:41:35.436Z,100371.44
2022-09-12T22:44:03.514Z,100322.09
2022-09-12T22:46:33.248Z,100362.81
2022-09-12T22:49:01.460Z,100354.06
2022-09-12T22:51:29.396Z,100362.41
2022-09-12T22:53:57.436Z,100364.34
2022-09-12T22:56:25.838Z,100373.28
2022-09-12T22:58:54.584Z,100350.41
2022-09-12T23:01:23.748Z,100348.84
2022-09-12T23:03:53.051Z,100348.28
2022-09-12T23:06:21.236Z,100351.59
2022-09-12T23:08:49.177Z,100343.88
2022-09-12T23:11:20.878Z,100329.72
2022-09-12T23:13:50.567Z,100340.47
2022-09-12T23:16:20.832Z,100340.00
2022-09-12T23:18:49.655Z,100342.56
2022-09-12T23:21:21.718Z,100336.56
2022-09-12T23:23:50.097Z,100334.63
2022-09-12T23:26:20.772Z,100333.88
2022-09-12T23:28:50.366Z,100332.16
2022-09-12T23:31:18.708Z,100323.13
2022-09-12T23:33:47.160Z,100319.69
2022-09-12T23:36:15.233Z,100326.78
2022-09-12T23:38:46.165Z,100313.88
2022-09-12T23:41:16.020Z,100305.16
2022-09-12T23:43:45.468Z,100308.72
2022-09-12T23:46:14.722Z,100308.44
2022-09-12T23:48:43.696Z,100297.63
2022-09-12T23:51:12.468Z,100318.22
2022-09-12T23:53:40.584Z,100320.50
2022-09-12T23:56:09.913Z,100318.78
2022-09-12T23:58:38.174Z,100317.06
